Time;durP1;ratioP1;P1;durP2;ratioP2;P2;SDS_P1;SDS_P2;PMS_P1;PMS_P2;Temp;Humidity;BMP_temperature;BMP_pressure;BME280_temperature;BME280_humidity;BME280_pressure;Samples;Min_cycle;Max_cycle;Signal;HPM_P1;HPM_P2
2022/02/24 00:02:02;;;;;;;8.18;2.80;;;;;;;;;;4877227;29;20041;-88
2022/02/24 00:04:29;;;;;;;11.98;3.35;;;;;;;;;;4882693;29;20017;-89
2022/02/24 00:06:54;;;;;;;7.60;3.15;;;;;;;;;;4890288;29;20390;-88
2022/02/24 00:09:20;;;;;;;9.38;3.10;;;;;;;;;;4882962;29;20036;-90
2022/02/24 00:11:45;;;;;;;9.05;3.42;;;;;;;;;;4883347;29;20045;-89
2022/02/24 00:14:11;;;;;;;7.70;2.85;;;;;;;;;;4883656;29;20040;-86
2022/02/24 00:16:36;;;;;;;8.25;2.95;;;;;;;;;;4879946;29;20088;-84
2022/02/24 00:19:02;;;;;;;8.77;2.72;;;;;;;;;;4880437;29;20516;-89
2022/02/24 00:21:27;;;;;;;8.23;2.92;;;;;;;;;;4882574;29;20044;-86
2022/02/24 00:23:52;;;;;;;7.20;3.20;;;;;;;;;;4880805;29;20048;-84
2022/02/24 00:26:18;;;;;;;10.10;3.05;;;;;;;;;;4878019;29;20028;-84
2022/02/24 00:28:43;;;;;;;8.00;3.17;;;;;;;;;;4873350;29;20059;-89
2022/02/24 00:31:09;;;;;;;9.43;3.22;;;;;;;;;;4886101;29;20040;-91
2022/02/24 00:33:39;;;;;;;11.55;3.45;;;;;;;;;;4876962;29;20085;-89
2022/02/24 00:36:05;;;;;;;8.68;3.40;;;;;;;;;;4880942;29;20559;-85
2022/02/24 00:38:30;;;;;;;11.70;3.33;;;;;;;;;;4884273;29;20473;-85
2022/02/24 00:40:56;;;;;;;14.75;3.42;;;;;;;;;;4871428;29;20037;-91
2022/02/24 00:43:21;;;;;;;9.38;3.13;;;;;;;;;;4878620;29;20033;-89
2022/02/24 00:45:46;;;;;;;8.38;3.03;;;;;;;;;;4876006;29;20055;-91
2022/02/24 00:48:12;;;;;;;9.38;3.42;;;;;;;;;;4861828;29;20048;-91
2022/02/24 00:50:38;;;;;;;9.85;3.38;;;;;;;;;;4880902;29;20024;-84
2022/02/24 00:53:04;;;;;;;10.30;3.53;;;;;;;;;;4878538;29;20035;-88
2022/02/24 00:55:29;;;;;;;10.20;3.40;;;;;;;;;;4882070;29;20017;-85
2022/02/24 00:57:55;;;;;;;11.55;3.80;;;;;;;;;;4879925;29;20049;-85
2022/02/24 01:00:20;;;;;;;10.52;3.78;;;;;;;;;;4876259;29;20033;-88
2022/02/24 01:02:46;;;;;;;14.38;3.78;;;;;;;;;;4878144;29;20043;-90
2022/02/24 01:05:11;;;;;;;10.77;3.55;;;;;;;;;;4877730;29;20093;-85
2022/02/24 01:07:37;;;;;;;9.27;3.83;;;;;;;;;;4877206;29;20599;-89
2022/02/24 01:10:04;;;;;;;10.95;3.58;;;;;;;;;;4880594;29;20494;-89
2022/02/24 01:12:29;;;;;;;11.10;3.58;;;;;;;;;;4876081;29;20033;-84
2022/02/24 01:14:55;;;;;;;11.90;4.22;;;;;;;;;;4874446;29;20033;-90
2022/02/24 01:17:20;;;;;;;10.32;3.80;;;;;;;;;;4875119;29;20033;-84
2022/02/24 01:19:46;;;;;;;12.30;3.50;;;;;;;;;;4876160;29;20029;-85
2022/02/24 01:22:11;;;;;;;7.70;3.70;;;;;;;;;;4875767;29;20478;-86
2022/02/24 01:24:37;;;;;;;9.23;3.88;;;;;;;;;;4876486;29;20608;-90
2022/02/24 01:27:03;;;;;;;8.98;3.47;;;;;;;;;;4880788;29;20032;-87
2022/02/24 01:29:29;;;;;;;9.38;3.63;;;;;;;;;;4871295;29;20032;-88
2022/02/24 01:31:54;;;;;;;9.65;3.47;;;;;;;;;;4895721;29;20036;-84
2022/02/24 01:34:20;;;;;;;9.45;3.67;;;;;;;;;;4869823;29;20506;-89
2022/02/24 01:36:46;;;;;;;11.13;3.90;;;;;;;;;;4871994;29;20482;-84
2022/02/24 01:39:12;;;;;;;9.02;3.90;;;;;;;;;;4879752;29;20040;-85
2022/02/24 01:41:37;;;;;;;9.50;3.72;;;;;;;;;;4864722;29;20041;-89
2022/02/24 01:44:11;;;;;;;10.50;3.53;;;;;;;;;;4882606;29;20121;-89
2022/02/24 01:46:37;;;;;;;9.15;3.72;;;;;;;;;;4879112;29;20324;-88
2022/02/24 01:49:04;;;;;;;11.27;3.88;;;;;;;;;;4871396;29;20120;-88
2022/02/24 01:51:30;;;;;;;12.68;3.72;;;;;;;;;;4873758;29;20032;-89
2022/02/24 01:53:56;;;;;;;10.38;3.58;;;;;;;;;;4876208;29;20493;-89
2022/02/24 01:56:21;;;;;;;10.27;3.42;;;;;;;;;;4879563;29;20108;-90
2022/02/24 01:58:48;;;;;;;11.02;3.33;;;;;;;;;;4877712;29;20742;-89
2022/02/24 02:01:14;;;;;;;7.10;3.15;;;;;;;;;;4875209;29;20037;-90
2022/02/24 02:03:40;;;;;;;13.02;3.30;;;;;;;;;;4874344;29;20024;-86
2022/02/24 02:06:06;;;;;;;9.43;3.30;;;;;;;;;;4872322;29;20030;-84
2022/02/24 02:08:32;;;;;;;9.63;3.50;;;;;;;;;;4871987;29;20025;-90
2022/02/24 02:10:57;;;;;;;10.35;3.33;;;;;;;;;;4877360;29;20043;-88
2022/02/24 02:13:22;;;;;;;10.57;3.63;;;;;;;;;;4874253;29;20495;-89
2022/02/24 02:15:48;;;;;;;9.25;3.30;;;;;;;;;;4879255;29;20497;-91
2022/02/24 02:18:13;;;;;;;10.25;3.28;;;;;;;;;;4880277;29;20029;-88
2022/02/24 02:20:39;;;;;;;8.95;2.95;;;;;;;;;;4876438;29;20025;-88
2022/02/24 02:23:05;;;;;;;7.65;2.90;;;;;;;;;;4877967;29;20032;-88
2022/02/24 02:25:30;;;;;;;9.40;2.80;;;;;;;;;;4875909;29;20037;-89
2022/02/24 02:27:56;;;;;;;10.40;2.95;;;;;;;;;;4869663;29;20450;-85
2022/02/24 02:30:22;;;;;;;9.23;2.80;;;;;;;;;;4869401;29;20040;-84
2022/02/24 02:32:48;;;;;;;9.00;3.00;;;;;;;;;;4875133;29;20060;-88
2022/02/24 02:35:14;;;;;;;9.95;2.78;;;;;;;;;;4876716;29;20215;-89
2022/02/24 02:37:40;;;;;;;7.07;2.70;;;;;;;;;;4878367;29;20080;-85
2022/02/24 02:40:06;;;;;;;9.93;2.85;;;;;;;;;;4877165;29;20525;-90
2022/02/24 02:42:31;;;;;;;8.02;2.78;;;;;;;;;;4879679;29;20029;-86
2022/02/24 02:44:57;;;;;;;7.95;2.95;;;;;;;;;;4876415;29;20044;-86
2022/02/24 02:47:22;;;;;;;9.32;2.78;;;;;;;;;;4883016;29;20025;-90
2022/02/24 02:49:48;;;;;;;9.75;2.35;;;;;;;;;;4880672;29;20497;-84
2022/02/24 02:52:13;;;;;;;11.43;3.17;;;;;;;;;;4869054;29;20044;-85
2022/02/24 02:54:39;;;;;;;12.32;2.40;;;;;;;;;;4869206;29;20536;-84
2022/02/24 02:57:04;;;;;;;6.22;2.20;;;;;;;;;;4874363;29;20037;-90
2022/02/24 02:59:29;;;;;;;6.43;2.28;;;;;;;;;;4871201;29;20048;-85
2022/02/24 03:01:55;;;;;;;12.15;2.45;;;;;;;;;;4879429;29;20112;-85
2022/02/24 03:04:21;;;;;;;12.18;2.83;;;;;;;;;;4877563;29;20025;-89
2022/02/24 03:06:46;;;;;;;11.70;2.42;;;;;;;;;;4872949;29;20436;-92
2022/02/24 03:09:12;;;;;;;6.95;2.47;;;;;;;;;;4874547;29;20048;-85
2022/02/24 03:11:37;;;;;;;7.60;2.25;;;;;;;;;;4882312;29;20084;-86
2022/02/24 03:14:03;;;;;;;10.02;2.40;;;;;;;;;;4886284;29;20037;-84
2022/02/24 03:16:28;;;;;;;8.02;2.53;;;;;;;;;;4876784;29;20029;-86
2022/02/24 03:18:54;;;;;;;9.10;2.63;;;;;;;;;;4876729;29;20130;-84
2022/02/24 03:21:19;;;;;;;11.82;2.50;;;;;;;;;;4884887;29;20104;-89
2022/02/24 03:23:45;;;;;;;10.55;2.70;;;;;;;;;;4884561;29;20029;-89
2022/02/24 03:26:11;;;;;;;9.90;2.60;;;;;;;;;;4877935;29;20179;-90
2022/02/24 03:28:36;;;;;;;12.20;2.92;;;;;;;;;;4876628;29;20037;-89
2022/02/24 03:31:02;;;;;;;10.63;3.30;;;;;;;;;;4886455;29;20472;-84
2022/02/24 03:33:28;;;;;;;7.82;2.60;;;;;;;;;;4885917;29;20489;-84
2022/02/24 03:35:53;;;;;;;9.77;3.33;;;;;;;;;;4888236;29;20028;-90
2022/02/24 03:38:19;;;;;;;7.47;2.85;;;;;;;;;;4880344;29;20029;-85
2022/02/24 03:40:44;;;;;;;12.73;3.10;;;;;;;;;;4886398;29;20040;-85
2022/02/24 03:43:09;;;;;;;6.00;2.50;;;;;;;;;;4882849;29;20048;-89
2022/02/24 03:45:35;;;;;;;9.75;3.17;;;;;;;;;;4877124;29;20067;-88
2022/02/24 03:48:00;;;;;;;10.48;2.88;;;;;;;;;;4882085;29;20037;-85
2022/02/24 03:50:26;;;;;;;8.90;3.08;;;;;;;;;;4879421;29;20526;-88
2022/02/24 03:52:52;;;;;;;9.27;2.78;;;;;;;;;;4880338;29;20029;-85
2022/02/24 03:55:17;;;;;;;6.85;2.60;;;;;;;;;;4878856;29;20541;-90
2022/02/24 03:57:43;;;;;;;7.72;3.10;;;;;;;;;;4875423;29;20040;-90
2022/02/24 04:00:09;;;;;;;10.25;2.97;;;;;;;;;;4881786;29;20039;-92
2022/02/24 04:02:35;;;;;;;8.60;2.70;;;;;;;;;;4870707;29;20051;-85
2022/02/24 04:05:00;;;;;;;14.55;3.50;;;;;;;;;;4876684;29;20029;-84
2022/02/24 04:07:26;;;;;;;10.05;2.70;;;;;;;;;;4878514;29;20029;-88
2022/02/24 04:09:52;;;;;;;9.95;3.08;;;;;;;;;;4876005;29;20033;-89
2022/02/24 04:12:18;;;;;;;9.15;3.10;;;;;;;;;;4897271;29;20564;-88
2022/02/24 04:14:45;;;;;;;9.07;3.20;;;;;;;;;;4874780;29;20034;-91
2022/02/24 04:17:10;;;;;;;9.75;3.00;;;;;;;;;;4875841;29;20073;-88
2022/02/24 04:19:35;;;;;;;10.18;2.95;;;;;;;;;;4877409;29;20025;-85
2022/02/24 04:22:01;;;;;;;8.57;3.40;;;;;;;;;;4886043;29;20409;-89
2022/02/24 04:24:26;;;;;;;8.35;3.35;;;;;;;;;;4875343;29;20097;-85
2022/02/24 04:26:52;;;;;;;7.00;2.97;;;;;;;;;;4877514;29;20024;-84
2022/02/24 04:29:17;;;;;;;10.27;3.45;;;;;;;;;;4879922;29;20550;-86
2022/02/24 04:31:42;;;;;;;11.13;3.35;;;;;;;;;;4893034;29;20098;-89
2022/02/24 04:34:08;;;;;;;9.30;2.95;;;;;;;;;;4882675;29;20052;-90
2022/02/24 04:36:33;;;;;;;9.60;3.35;;;;;;;;;;4879214;29;20029;-85
2022/02/24 04:38:58;;;;;;;12.63;3.05;;;;;;;;;;4879373;29;20040;-89
2022/02/24 04:41:24;;;;;;;8.43;3.25;;;;;;;;;;4876812;29;20040;-84
2022/02/24 04:43:49;;;;;;;10.38;3.63;;;;;;;;;;4876615;29;20036;-85
2022/02/24 04:46:15;;;;;;;7.80;2.90;;;;;;;;;;4881924;29;20068;-89
2022/02/24 04:48:41;;;;;;;9.23;3.03;;;;;;;;;;4870334;29;20029;-85
2022/02/24 04:51:06;;;;;;;11.07;2.97;;;;;;;;;;4871253;29;20040;-89
2022/02/24 04:53:32;;;;;;;9.85;3.33;;;;;;;;;;4876600;29;20101;-85
2022/02/24 04:55:57;;;;;;;8.63;3.20;;;;;;;;;;4875245;29;20037;-84
2022/02/24 04:58:23;;;;;;;11.43;3.15;;;;;;;;;;4879638;29;20394;-85
2022/02/24 05:00:48;;;;;;;13.68;3.10;;;;;;;;;;4885616;29;20478;-85
2022/02/24 05:03:14;;;;;;;12.07;3.45;;;;;;;;;;4880978;29;20033;-85
2022/02/24 05:05:39;;;;;;;8.43;2.85;;;;;;;;;;4880707;29;20040;-89
2022/02/24 05:08:05;;;;;;;9.63;3.00;;;;;;;;;;4877318;29;20363;-85
2022/02/24 05:10:30;;;;;;;12.85;3.20;;;;;;;;;;4879137;29;20474;-84
2022/02/24 05:12:56;;;;;;;10.43;3.30;;;;;;;;;;4876889;29;20556;-85
2022/02/24 05:15:22;;;;;;;10.05;2.80;;;;;;;;;;4876768;29;20046;-85
2022/02/24 05:17:49;;;;;;;7.03;3.10;;;;;;;;;;4879314;29;20044;-90
2022/02/24 05:20:15;;;;;;;11.30;3.20;;;;;;;;;;4880654;29;20037;-89
2022/02/24 05:22:42;;;;;;;13.68;3.30;;;;;;;;;;4877003;29;20048;-89
2022/02/24 05:25:09;;;;;;;11.27;2.95;;;;;;;;;;4875811;29;20033;-89
2022/02/24 05:27:34;;;;;;;10.90;3.50;;;;;;;;;;4874013;29;20040;-91
2022/02/24 05:30:00;;;;;;;9.65;2.90;;;;;;;;;;4876980;29;20036;-88
2022/02/24 05:32:26;;;;;;;10.80;3.25;;;;;;;;;;4877090;29;20032;-84
2022/02/24 05:34:51;;;;;;;11.65;3.10;;;;;;;;;;4879241;29;20486;-89
2022/02/24 05:37:17;;;;;;;8.75;2.80;;;;;;;;;;4877852;29;20032;-90
2022/02/24 05:39:43;;;;;;;10.25;3.25;;;;;;;;;;4878651;29;20037;-88
2022/02/24 05:42:08;;;;;;;15.02;3.50;;;;;;;;;;4879077;29;20038;-86
2022/02/24 05:44:33;;;;;;;7.70;3.25;;;;;;;;;;4878242;29;20363;-90
2022/02/24 05:46:59;;;;;;;8.52;3.05;;;;;;;;;;4875705;29;20501;-90
2022/02/24 05:49:24;;;;;;;12.05;2.95;;;;;;;;;;4878042;29;20029;-84
2022/02/24 05:51:50;;;;;;;14.88;3.05;;;;;;;;;;4881631;29;20033;-90
2022/02/24 05:54:15;;;;;;;13.23;3.60;;;;;;;;;;4872778;29;20098;-90
2022/02/24 05:56:41;;;;;;;10.93;2.70;;;;;;;;;;4881126;29;20021;-90
2022/02/24 05:59:06;;;;;;;9.15;2.90;;;;;;;;;;4873799;29;20037;-88
2022/02/24 06:01:32;;;;;;;8.52;3.08;;;;;;;;;;4876866;29;20037;-90
2022/02/24 06:03:57;;;;;;;9.35;2.90;;;;;;;;;;4875992;29;20043;-85
2022/02/24 06:06:22;;;;;;;8.48;2.85;;;;;;;;;;4876856;29;20119;-85
2022/02/24 06:08:48;;;;;;;11.10;3.05;;;;;;;;;;4873223;29;20394;-90
2022/02/24 06:11:13;;;;;;;11.35;3.85;;;;;;;;;;4874123;29;20041;-88
2022/02/24 06:13:39;;;;;;;8.45;2.67;;;;;;;;;;4877477;29;20441;-89
2022/02/24 06:16:04;;;;;;;13.98;3.25;;;;;;;;;;4884209;29;20033;-90
2022/02/24 06:18:30;;;;;;;10.82;2.70;;;;;;;;;;4875582;29;20126;-89
2022/02/24 06:20:56;;;;;;;9.63;2.70;;;;;;;;;;4877257;29;20047;-85
2022/02/24 06:23:22;;;;;;;7.43;2.50;;;;;;;;;;4880008;29;20541;-87
2022/02/24 06:25:53;;;;;;;11.27;2.78;;;;;;;;;;4862125;29;20120;-90
2022/02/24 06:28:19;;;;;;;10.07;2.63;;;;;;;;;;4867172;29;20081;-84
2022/02/24 06:30:44;;;;;;;9.48;2.80;;;;;;;;;;4872865;29;21030;-90
2022/02/24 06:33:10;;;;;;;14.73;2.90;;;;;;;;;;4870397;29;20398;-84
2022/02/24 06:35:37;;;;;;;13.40;2.75;;;;;;;;;;4874466;29;20041;-89
2022/02/24 06:38:03;;;;;;;9.63;2.38;;;;;;;;;;4876897;29;20032;-85
2022/02/24 06:40:30;;;;;;;9.40;3.17;;;;;;;;;;4875857;29;20400;-85
2022/02/24 06:43:02;;;;;;;10.25;2.53;;;;;;;;;;4870553;29;20043;-84
2022/02/24 06:45:27;;;;;;;6.97;2.22;;;;;;;;;;4872066;29;20041;-89
2022/02/24 06:47:53;;;;;;;7.78;2.40;;;;;;;;;;4876280;29;20029;-90
2022/02/24 06:50:18;;;;;;;9.90;2.65;;;;;;;;;;4881195;29;20036;-85
2022/02/24 06:52:44;;;;;;;11.25;3.20;;;;;;;;;;4876970;29;20029;-90
2022/02/24 06:55:10;;;;;;;8.32;2.30;;;;;;;;;;4877875;29;20091;-89
2022/02/24 06:57:41;;;;;;;9.55;2.55;;;;;;;;;;4878550;29;20044;-89
2022/02/24 07:00:07;;;;;;;8.38;2.53;;;;;;;;;;4881135;29;20024;-92
2022/02/24 07:02:32;;;;;;;11.35;2.45;;;;;;;;;;4883909;29;20084;-84
2022/02/24 07:04:58;;;;;;;10.52;2.80;;;;;;;;;;4881019;29;20033;-90
2022/02/24 07:07:23;;;;;;;9.50;2.42;;;;;;;;;;4880794;29;20116;-83
2022/02/24 07:09:48;;;;;;;6.05;2.17;;;;;;;;;;4878485;29;20048;-84
2022/02/24 07:12:14;;;;;;;6.35;2.00;;;;;;;;;;4886241;29;20127;-90
2022/02/24 07:14:41;;;;;;;11.88;2.28;;;;;;;;;;4876893;29;20041;-83
2022/02/24 07:17:06;;;;;;;6.97;2.22;;;;;;;;;;4875595;29;20093;-83
2022/02/24 07:19:32;;;;;;;6.20;2.13;;;;;;;;;;4886761;29;20032;-83
2022/02/24 07:21:57;;;;;;;7.72;2.03;;;;;;;;;;4893573;29;20036;-92
2022/02/24 07:24:23;;;;;;;7.05;2.00;;;;;;;;;;4883342;29;20102;-88
2022/02/24 07:26:48;;;;;;;8.77;2.10;;;;;;;;;;4885822;29;20440;-83
2022/02/24 07:29:13;;;;;;;9.07;1.92;;;;;;;;;;4886754;29;20025;-83
2022/02/24 07:31:39;;;;;;;9.13;1.60;;;;;;;;;;4884762;29;20032;-89
2022/02/24 07:34:05;;;;;;;10.40;2.08;;;;;;;;;;4888676;29;20041;-91
2022/02/24 07:36:33;;;;;;;10.52;1.75;;;;;;;;;;4888937;29;20182;-91
2022/02/24 07:38:59;;;;;;;6.00;1.83;;;;;;;;;;4883152;29;20029;-90
2022/02/24 07:41:24;;;;;;;5.60;1.77;;;;;;;;;;4885676;29;20389;-90
2022/02/24 07:43:49;;;;;;;6.15;2.13;;;;;;;;;;4878775;29;20059;-88
2022/02/24 07:46:15;;;;;;;13.38;2.17;;;;;;;;;;4880282;29;20482;-90
2022/02/24 07:48:40;;;;;;;11.02;2.00;;;;;;;;;;4883333;29;20024;-83
2022/02/24 07:51:06;;;;;;;10.70;2.40;;;;;;;;;;4887478;29;20056;-83
2022/02/24 07:53:31;;;;;;;8.18;2.13;;;;;;;;;;4880985;29;20037;-88
2022/02/24 07:55:56;;;;;;;9.05;2.50;;;;;;;;;;4891393;29;20037;-88
2022/02/24 07:58:22;;;;;;;9.45;2.10;;;;;;;;;;4885323;29;20119;-89
2022/02/24 08:00:47;;;;;;;8.38;2.20;;;;;;;;;;4879569;29;20038;-84
2022/02/24 08:03:15;;;;;;;8.02;2.38;;;;;;;;;;4883032;29;20045;-83
2022/02/24 08:05:40;;;;;;;10.20;2.30;;;;;;;;;;4879755;29;20716;-84
2022/02/24 08:08:08;;;;;;;12.57;2.30;;;;;;;;;;4881755;29;20037;-84
2022/02/24 08:10:34;;;;;;;9.40;2.58;;;;;;;;;;4878127;29;20035;-88
2022/02/24 08:13:01;;;;;;;8.38;2.40;;;;;;;;;;4883657;29;20489;-84
2022/02/24 08:15:26;;;;;;;9.57;2.55;;;;;;;;;;4883910;29;20033;-89
2022/02/24 08:17:52;;;;;;;7.07;2.08;;;;;;;;;;4894416;29;20040;-83
2022/02/24 08:20:18;;;;;;;9.80;2.40;;;;;;;;;;4878623;29;20047;-83
2022/02/24 08:22:45;;;;;;;8.00;1.90;;;;;;;;;;4884839;29;20020;-89
2022/02/24 08:25:13;;;;;;;9.52;2.10;;;;;;;;;;4884020;29;20047;-83
2022/02/24 08:27:41;;;;;;;10.05;2.20;;;;;;;;;;4883762;29;20106;-84
2022/02/24 08:30:10;;;;;;;7.25;2.10;;;;;;;;;;4878769;29;20024;-83
2022/02/24 08:32:36;;;;;;;8.40;2.80;;;;;;;;;;4891535;29;20367;-83
2022/02/24 08:35:02;;;;;;;11.40;3.22;;;;;;;;;;4880685;29;20041;-89
2022/02/24 08:37:28;;;;;;;11.60;2.40;;;;;;;;;;4884920;29;20057;-84
2022/02/24 08:39:54;;;;;;;7.82;2.00;;;;;;;;;;4880687;29;20037;-84
2022/02/24 08:42:22;;;;;;;10.95;2.00;;;;;;;;;;4879126;29;20038;-82
2022/02/24 08:44:48;;;;;;;5.55;2.00;;;;;;;;;;4885209;29;20029;-84
2022/02/24 08:47:14;;;;;;;9.13;1.83;;;;;;;;;;4878902;29;20037;-90
2022/02/24 08:49:39;;;;;;;11.23;2.53;;;;;;;;;;4882739;29;20093;-88
2022/02/24 08:52:05;;;;;;;7.32;2.00;;;;;;;;;;4880234;29;20032;-83
2022/02/24 08:54:32;;;;;;;7.43;2.00;;;;;;;;;;4890314;29;20029;-90
2022/02/24 08:56:59;;;;;;;8.13;2.03;;;;;;;;;;4884967;29;20140;-84
2022/02/24 08:59:25;;;;;;;8.88;2.08;;;;;;;;;;4882726;29;20789;-83
2022/02/24 09:01:50;;;;;;;7.10;2.08;;;;;;;;;;4882108;29;20068;-88
2022/02/24 09:04:16;;;;;;;7.22;2.08;;;;;;;;;;4887440;29;20025;-87
2022/02/24 09:06:41;;;;;;;8.55;2.20;;;;;;;;;;4881124;29;20080;-83
2022/02/24 09:09:07;;;;;;;6.40;1.75;;;;;;;;;;4877094;29;20036;-84
2022/02/24 09:11:32;;;;;;;8.57;2.30;;;;;;;;;;4876405;29;20127;-89
2022/02/24 09:13:57;;;;;;;9.27;1.90;;;;;;;;;;4879313;29;20033;-88
2022/02/24 09:16:23;;;;;;;6.53;1.92;;;;;;;;;;4878390;29;20029;-88
2022/02/24 09:18:49;;;;;;;10.10;2.22;;;;;;;;;;4875933;29;20029;-83
2022/02/24 09:21:14;;;;;;;10.77;2.00;;;;;;;;;;4886862;29;20043;-90
2022/02/24 09:23:40;;;;;;;10.65;2.10;;;;;;;;;;4876027;29;20495;-88
2022/02/24 09:26:06;;;;;;;5.57;1.77;;;;;;;;;;4880799;29;20325;-84
2022/02/24 09:28:31;;;;;;;8.95;1.77;;;;;;;;;;4880495;29;20029;-91
2022/02/24 09:30:56;;;;;;;7.93;2.40;;;;;;;;;;4873232;29;20028;-83
2022/02/24 09:33:22;;;;;;;6.22;1.75;;;;;;;;;;4872398;29;20100;-84
2022/02/24 09:35:47;;;;;;;8.38;2.40;;;;;;;;;;4877113;29;20486;-83
2022/02/24 09:38:14;;;;;;;10.30;2.03;;;;;;;;;;4877371;29;20036;-88
2022/02/24 09:40:40;;;;;;;5.65;1.77;;;;;;;;;;4881384;29;20044;-88
2022/02/24 09:43:06;;;;;;;6.30;1.80;;;;;;;;;;4876270;29;20037;-83
2022/02/24 09:45:32;;;;;;;7.40;2.08;;;;;;;;;;4875403;29;20561;-90
2022/02/24 09:48:04;;;;;;;9.02;1.65;;;;;;;;;;4877799;29;20037;-84
2022/02/24 09:50:30;;;;;;;9.90;2.00;;;;;;;;;;4880280;29;20037;-82
2022/02/24 09:52:56;;;;;;;6.13;1.52;;;;;;;;;;4879014;29;20068;-83
2022/02/24 09:55:21;;;;;;;6.38;1.88;;;;;;;;;;4875166;29;20071;-82
2022/02/24 09:57:46;;;;;;;7.78;1.70;;;;;;;;;;4876306;29;20036;-87
2022/02/24 10:00:12;;;;;;;7.55;1.67;;;;;;;;;;4876088;29;20093;-88
2022/02/24 10:02:38;;;;;;;6.60;2.10;;;;;;;;;;4875619;29;20112;-90
2022/02/24 10:05:12;;;;;;;7.45;1.88;;;;;;;;;;4875944;29;20427;-84
2022/02/24 10:07:38;;;;;;;8.40;1.88;;;;;;;;;;4879482;29;20037;-83
2022/02/24 10:10:27;;;;;;;8.82;2.28;;;;;;;;;;4876886;29;20124;-84
2022/02/24 10:13:04;;;;;;;10.57;1.65;;;;;;;;;;4879134;29;20036;-83
2022/02/24 10:15:31;;;;;;;9.63;1.90;;;;;;;;;;4890545;29;20028;-83
2022/02/24 10:18:11;;;;;;;7.82;2.10;;;;;;;;;;4879239;29;20044;-84
2022/02/24 10:20:45;;;;;;;7.10;1.80;;;;;;;;;;4867780;29;20040;-84
2022/02/24 10:23:12;;;;;;;5.95;1.83;;;;;;;;;;4874608;29;20032;-88
2022/02/24 10:25:46;;;;;;;7.20;1.95;;;;;;;;;;4878829;29;20487;-88
2022/02/24 10:28:52;;;;;;;10.10;2.15;;;;;;;;;;4882112;29;20080;-83
2022/02/24 10:31:23;;;;;;;9.27;1.83;;;;;;;;;;4821881;29;20053;-82
2022/02/24 10:33:51;;;;;;;10.20;2.05;;;;;;;;;;4818143;29;20087;-84
2022/02/24 10:36:24;;;;;;;8.55;1.98;;;;;;;;;;4857076;29;20061;-90
2022/02/24 10:38:59;;;;;;;;;;;;;;;;;;4876169;29;20459;-84
2022/02/24 10:41:33;;;;;;;5.65;1.70;;;;;;;;;;4876027;29;19955;-84
2022/02/24 10:44:16;;;;;;;10.63;1.92;;;;;;;;;;4870602;29;20409;-83
2022/02/24 10:46:45;;;;;;;6.65;1.77;;;;;;;;;;4883801;29;20350;-84
2022/02/24 10:49:12;;;;;;;7.50;2.00;;;;;;;;;;4878959;29;20565;-83
2022/02/24 10:51:38;;;;;;;7.68;1.60;;;;;;;;;;4880505;29;20040;-84
2022/02/24 10:54:05;;;;;;;8.77;2.00;;;;;;;;;;4875651;29;20033;-88
2022/02/24 10:56:32;;;;;;;7.15;1.60;;;;;;;;;;4880196;29;20025;-88
2022/02/24 10:58:57;;;;;;;8.48;2.17;;;;;;;;;;4879581;29;20119;-91
2022/02/24 11:01:25;;;;;;;9.68;1.98;;;;;;;;;;4881154;29;20112;-87
2022/02/24 11:04:05;;;;;;;7.63;1.63;;;;;;;;;;4875646;29;20041;-83
2022/02/24 11:06:33;;;;;;;9.63;1.70;;;;;;;;;;4891815;29;20119;-84
2022/02/24 11:09:00;;;;;;;9.13;1.73;;;;;;;;;;4887148;29;20562;-85
2022/02/24 11:11:29;;;;;;;6.10;1.60;;;;;;;;;;4889886;29;20485;-84
2022/02/24 11:13:57;;;;;;;8.30;1.83;;;;;;;;;;4874421;29;20128;-87
2022/02/24 11:16:24;;;;;;;7.90;2.10;;;;;;;;;;4879381;29;20413;-90
2022/02/24 11:18:50;;;;;;;8.63;1.67;;;;;;;;;;4885084;29;20810;-83
2022/02/24 11:21:17;;;;;;;8.48;1.83;;;;;;;;;;4879464;29;20505;-90
2022/02/24 11:23:44;;;;;;;10.07;2.17;;;;;;;;;;4878598;29;20036;-84
2022/02/24 11:26:09;;;;;;;11.30;2.13;;;;;;;;;;4892753;29;20149;-91
2022/02/24 11:29:02;;;;;;;8.55;1.77;;;;;;;;;;4889035;29;20127;-83
2022/02/24 11:31:39;;;;;;;9.98;1.80;;;;;;;;;;4862670;29;20656;-84
2022/02/24 11:34:05;;;;;;;9.70;1.77;;;;;;;;;;4872888;29;20518;-84
2022/02/24 11:36:44;;;;;;;8.65;1.75;;;;;;;;;;4876816;29;20068;-87
2022/02/24 11:39:12;;;;;;;4.97;1.40;;;;;;;;;;4885938;29;20112;-85
2022/02/24 11:41:57;;;;;;;7.13;1.52;;;;;;;;;;4880304;29;20522;-83
2022/02/24 11:44:39;;;;;;;5.53;1.17;;;;;;;;;;4874985;29;20025;-83
2022/02/24 11:47:10;;;;;;;4.85;1.20;;;;;;;;;;4881525;29;20088;-88
2022/02/24 11:49:54;;;;;;;9.52;1.60;;;;;;;;;;4882012;29;20039;-83
2022/02/24 11:52:20;;;;;;;;;;;;;;;;;;4884138;29;20029;-83
2022/02/24 11:54:45;;;;;;;4.97;1.08;;;;;;;;;;4893951;29;19971;-84
2022/02/24 11:57:29;;;;;;;3.72;1.10;;;;;;;;;;4882260;29;20032;-84
2022/02/24 11:59:56;;;;;;;5.30;1.25;;;;;;;;;;4872727;29;20029;-84
2022/02/24 12:02:45;;;;;;;3.85;1.00;;;;;;;;;;4883329;29;20489;-89
2022/02/24 12:05:22;;;;;;;4.00;1.23;;;;;;;;;;4883423;29;20053;-84
2022/02/24 12:08:13;;;;;;;5.00;1.23;;;;;;;;;;4878148;29;20041;-92
2022/02/24 12:10:43;;;;;;;5.45;1.23;;;;;;;;;;4877805;29;20033;-83
2022/02/24 12:13:27;;;;;;;6.00;1.30;;;;;;;;;;4878680;29;20047;-90
2022/02/24 12:16:10;;;;;;;;;;;;;;;;;;4873105;29;20048;-92
2022/02/24 12:18:40;;;;;;;4.25;1.10;;;;;;;;;;4885546;29;20396;-88
2022/02/24 12:21:37;;;;;;;3.70;1.08;;;;;;;;;;4880589;29;20040;-88
2022/02/24 12:24:11;;;;;;;4.28;1.15;;;;;;;;;;4883806;29;20035;-83
2022/02/24 12:26:50;;;;;;;13.85;1.40;;;;;;;;;;4879657;29;20036;-88
2022/02/24 12:29:42;;;;;;;3.72;1.15;;;;;;;;;;4876153;29;20036;-84
2022/02/24 12:32:08;;;;;;;5.03;1.35;;;;;;;;;;4888459;29;20037;-89
2022/02/24 12:34:34;;;;;;;3.55;1.05;;;;;;;;;;4878732;29;20127;-84
2022/02/24 12:37:04;;;;;;;4.53;1.13;;;;;;;;;;4879706;29;20028;-89
2022/02/24 12:39:30;;;;;;;5.15;1.60;;;;;;;;;;4889876;29;20038;-84
2022/02/24 12:42:04;;;;;;;4.30;1.20;;;;;;;;;;4888054;29;20029;-88
2022/02/24 12:44:35;;;;;;;2.72;1.00;;;;;;;;;;4884687;29;20033;-91
2022/02/24 12:47:02;;;;;;;4.68;1.00;;;;;;;;;;4889046;29;20036;-91
2022/02/24 12:49:40;;;;;;;5.40;1.10;;;;;;;;;;4878225;29;20501;-84
2022/02/24 12:52:06;;;;;;;3.83;1.05;;;;;;;;;;4884354;29;20043;-88
2022/02/24 12:54:31;;;;;;;8.45;1.30;;;;;;;;;;4878380;29;20037;-89
2022/02/24 12:57:02;;;;;;;6.03;1.00;;;;;;;;;;4878891;29;20450;-84
2022/02/24 12:59:28;;;;;;;6.47;1.10;;;;;;;;;;4877699;29;20063;-84
2022/02/24 13:01:54;;;;;;;3.33;1.30;;;;;;;;;;4881073;29;20037;-90
2022/02/24 13:04:21;;;;;;;3.13;0.88;;;;;;;;;;4885288;29;20438;-85
2022/02/24 13:06:47;;;;;;;3.92;1.02;;;;;;;;;;4877852;29;20466;-89
2022/02/24 13:12:08;;;;;;;5.22;1.13;;;;;;;;;;4881821;29;20402;-90
2022/02/24 13:14:35;;;;;;;3.30;0.90;;;;;;;;;;4874602;29;20064;-84
2022/02/24 13:17:01;;;;;;;3.00;1.00;;;;;;;;;;4879465;29;20036;-83
2022/02/24 13:19:27;;;;;;;3.38;1.00;;;;;;;;;;4884385;29;20033;-84
2022/02/24 13:21:58;;;;;;;5.43;1.17;;;;;;;;;;4877446;29;20040;-84
2022/02/24 13:24:25;;;;;;;3.45;1.13;;;;;;;;;;4876841;29;20085;-84
2022/02/24 13:26:50;;;;;;;2.53;1.00;;;;;;;;;;4887320;29;20469;-92
2022/02/24 13:29:19;;;;;;;5.70;1.17;;;;;;;;;;4880115;29;20040;-83
2022/02/24 13:31:45;;;;;;;5.68;1.70;;;;;;;;;;4866893;29;20043;-88
2022/02/24 13:34:15;;;;;;;5.55;1.60;;;;;;;;;;4871757;29;20140;-84
2022/02/24 13:36:44;;;;;;;2.95;0.90;;;;;;;;;;4882765;29;20045;-91
2022/02/24 13:39:11;;;;;;;4.18;0.60;;;;;;;;;;4882854;29;20553;-87
2022/02/24 13:41:36;;;;;;;3.20;0.60;;;;;;;;;;4878608;29;20087;-88
2022/02/24 13:44:02;;;;;;;3.17;0.40;;;;;;;;;;4874724;29;20068;-87
2022/02/24 13:46:43;;;;;;;3.15;0.50;;;;;;;;;;4882125;29;20056;-88
2022/02/24 13:49:10;;;;;;;2.63;0.50;;;;;;;;;;4877997;29;20040;-89
2022/02/24 13:51:37;;;;;;;3.20;0.57;;;;;;;;;;4875406;29;20061;-90
2022/02/24 13:54:03;;;;;;;3.10;0.40;;;;;;;;;;4886102;29;20028;-87
2022/02/24 13:56:29;;;;;;;2.28;0.40;;;;;;;;;;4884626;29;20036;-88
2022/02/24 13:58:59;;;;;;;3.65;0.60;;;;;;;;;;4891125;29;20036;-83
2022/02/24 14:01:27;;;;;;;2.72;0.40;;;;;;;;;;4878402;29;20119;-83
2022/02/24 14:03:55;;;;;;;1.63;0.40;;;;;;;;;;4889988;29;20463;-87
2022/02/24 14:06:25;;;;;;;2.75;0.30;;;;;;;;;;4886130;29;20064;-89
2022/02/24 14:09:00;;;;;;;0.40;0.32;;;;;;;;;;4881694;29;20024;-88
2022/02/24 14:11:33;;;;;;;2.42;0.40;;;;;;;;;;4877425;29;20024;-83
2022/02/24 14:14:03;;;;;;;4.10;1.15;;;;;;;;;;4871487;29;20490;-89
2022/02/24 14:16:29;;;;;;;2.33;0.30;;;;;;;;;;4876195;29;20055;-82
2022/02/24 14:18:55;;;;;;;2.53;0.30;;;;;;;;;;4872589;29;20039;-82
2022/02/24 14:21:21;;;;;;;0.73;0.30;;;;;;;;;;4883609;29;20036;-88
2022/02/24 14:23:48;;;;;;;1.67;0.32;;;;;;;;;;4877277;29;20049;-90
2022/02/24 14:26:15;;;;;;;2.72;0.30;;;;;;;;;;4879027;29;20533;-88
2022/02/24 14:28:42;;;;;;;0.65;0.20;;;;;;;;;;4879077;29;20025;-82
2022/02/24 14:31:08;;;;;;;4.03;0.30;;;;;;;;;;4878291;29;20028;-88
2022/02/24 14:33:34;;;;;;;1.85;0.22;;;;;;;;;;4873763;29;20037;-90
2022/02/24 14:36:00;;;;;;;1.50;0.20;;;;;;;;;;4877714;29;20049;-88
2022/02/24 14:38:26;;;;;;;1.42;0.20;;;;;;;;;;4882977;29;20154;-88
2022/02/24 14:40:52;;;;;;;1.02;0.30;;;;;;;;;;4885472;29;20379;-82
2022/02/24 14:43:18;;;;;;;1.40;0.30;;;;;;;;;;4879571;29;20533;-87
2022/02/24 14:45:45;;;;;;;0.47;0.32;;;;;;;;;;4882380;29;20159;-90